createdAt,value
2023-03-26T00:01:26.099Z,2.37
2023-03-26T00:03:30.470Z,3.23
2023-03-26T00:05:33.451Z,4.87
2023-03-26T00:07:36.347Z,2.20
2023-03-26T00:09:39.409Z,7.83
2023-03-26T00:11:42.680Z,4.33
2023-03-26T00:13:46.869Z,10.30
2023-03-26T00:15:49.985Z,7.17
2023-03-26T00:17:54.204Z,9.47
2023-03-26T00:19:59.668Z,7.60
2023-03-26T00:22:03.906Z,11.10
2023-03-26T00:24:09.991Z,12.63
2023-03-26T00:26:12.960Z,13.80
2023-03-26T00:28:17.199Z,11.03
2023-03-26T00:30:20.185Z,12.20
2023-03-26T00:32:27.988Z,12.67
2023-03-26T00:34:31.002Z,16.73
2023-03-26T00:36:37.246Z,14.17
2023-03-26T00:38:40.260Z,20.13
2023-03-26T00:40:44.179Z,18.17
2023-03-26T00:42:47.504Z,18.50
2023-03-26T00:44:55.029Z,18.90
2023-03-26T00:46:58.017Z,23.37
2023-03-26T00:49:01.923Z,24.23
2023-03-26T00:51:06.427Z,34.00
2023-03-26T00:53:12.229Z,26.30
2023-03-26T00:55:16.102Z,33.27
2023-03-26T00:57:34.526Z,18.37
2023-03-26T00:59:39.087Z,32.97
2023-03-26T01:01:42.429Z,32.20
2023-03-26T01:04:04.880Z,21.87
2023-03-26T01:06:13.702Z,18.77
2023-03-26T01:08:25.941Z,22.93
2023-03-26T01:10:30.021Z,23.80
2023-03-26T01:12:33.252Z,15.63
2023-03-26T01:14:36.289Z,21.43
2023-03-26T01:16:42.777Z,23.03
2023-03-26T01:18:46.021Z,19.17
2023-03-26T01:20:51.083Z,24.00
2023-03-26T01:22:59.414Z,23.23
2023-03-26T01:25:04.745Z,20.27
2023-03-26T01:27:17.982Z,19.60
2023-03-26T01:29:24.301Z,24.17
2023-03-26T01:31:30.842Z,20.87
2023-03-26T01:33:38.346Z,20.70
2023-03-26T01:35:45.849Z,30.37
2023-03-26T01:37:58.826Z,30.63
2023-03-26T01:40:07.070Z,26.50
2023-03-26T01:42:13.283Z,38.17
2023-03-26T01:44:20.936Z,16.60
2023-03-26T01:46:25.615Z,18.80
2023-03-26T01:48:31.853Z,32.57
2023-03-26T01:50:34.845Z,23.20
2023-03-26T01:52:38.192Z,33.47
2023-03-26T01:54:42.997Z,25.13
2023-03-26T01:56:53.296Z,25.70
2023-03-26T01:59:08.761Z,24.80
2023-03-26T02:01:19.826Z,31.53
2023-03-26T02:03:27.035Z,31.43
2023-03-26T02:05:32.565Z,25.97
2023-03-26T02:07:41.338Z,21.83
2023-03-26T02:09:49.840Z,39.37
2023-03-26T02:11:55.238Z,25.67
2023-03-26T02:13:59.338Z,29.03
2023-03-26T02:16:04.193Z,45.67
2023-03-26T02:18:10.771Z,38.00
2023-03-26T02:20:15.444Z,23.83
2023-03-26T02:22:18.863Z,26.57
2023-03-26T02:24:22.584Z,35.10
2023-03-26T02:26:31.043Z,38.30
2023-03-26T02:28:43.136Z,26.57
2023-03-26T02:30:47.501Z,28.37
2023-03-26T02:32:52.423Z,26.93
2023-03-26T02:34:56.273Z,33.40
2023-03-26T02:37:00.136Z,28.00
2023-03-26T02:39:05.204Z,26.70
2023-03-26T02:41:11.972Z,33.70
2023-03-26T02:43:28.154Z,26.73
2023-03-26T02:45:32.541Z,28.53
2023-03-26T02:47:41.706Z,22.23
2023-03-26T02:50:09.033Z,37.37
2023-03-26T02:52:28.183Z,39.60
2023-03-26T02:54:34.290Z,28.20
2023-03-26T02:56:53.571Z,29.67
2023-03-26T02:59:13.846Z,44.60
2023-03-26T03:01:20.521Z,42.50
2023-03-26T03:03:29.967Z,33.47
2023-03-26T03:05:38.006Z,20.50
2023-03-26T03:07:49.840Z,29.40
2023-03-26T03:09:53.147Z,30.00
2023-03-26T03:12:19.100Z,31.57
2023-03-26T03:14:22.187Z,24.33
2023-03-26T03:16:27.125Z,32.90
2023-03-26T03:18:30.594Z,30.70
2023-03-26T03:20:35.123Z,26.40
2023-03-26T03:22:38.499Z,24.33
2023-03-26T03:24:43.788Z,43.13
2023-03-26T03:26:47.605Z,30.53
2023-03-26T03:29:13.823Z,26.70
2023-03-26T03:31:18.075Z,36.77
2023-03-26T03:33:22.641Z,31.30
2023-03-26T03:35:27.612Z,28.17
2023-03-26T03:37:33.560Z,33.37
2023-03-26T03:39:36.673Z,36.33
2023-03-26T03:41:39.799Z,39.77
2023-03-26T03:43:47.586Z,35.33
2023-03-26T03:45:55.422Z,28.87
2023-03-26T03:48:07.768Z,21.37
2023-03-26T03:50:18.754Z,20.53
2023-03-26T03:52:35.608Z,37.77
2023-03-26T03:54:38.800Z,25.93
2023-03-26T03:56:59.557Z,31.30
2023-03-26T04:00:15.675Z,34.80
2023-03-26T04:02:26.322Z,31.30
2023-03-26T04:04:34.376Z,28.10
2023-03-26T04:06:41.153Z,28.03
2023-03-26T04:08:46.036Z,29.43
2023-03-26T04:10:49.679Z,20.20
2023-03-26T04:12:52.875Z,24.73
2023-03-26T04:15:04.419Z,30.13
2023-03-26T04:17:08.778Z,38.60
2023-03-26T04:19:15.940Z,27.83
2023-03-26T04:21:19.485Z,27.00
2023-03-26T04:23:24.451Z,24.60
2023-03-26T04:25:33.581Z,23.53
2023-03-26T04:27:51.800Z,35.33
2023-03-26T04:30:01.209Z,25.30
2023-03-26T04:32:06.819Z,25.60
2023-03-26T04:34:15.703Z,34.23
2023-03-26T04:36:28.537Z,31.20
2023-03-26T04:38:42.290Z,37.80
2023-03-26T04:40:47.491Z,19.30
2023-03-26T04:42:50.648Z,33.43
2023-03-26T04:45:09.576Z,22.03
2023-03-26T04:47:13.224Z,25.80
2023-03-26T04:49:21.130Z,22.87
2023-03-26T04:51:27.162Z,23.07
2023-03-26T04:53:32.978Z,30.93
2023-03-26T04:55:52.533Z,38.50
2023-03-26T04:58:14.041Z,24.30
2023-03-26T05:00:30.273Z,21.27
2023-03-26T05:02:39.957Z,21.47
2023-03-26T05:04:43.967Z,41.23
2023-03-26T05:06:49.358Z,36.43
2023-03-26T05:09:00.047Z,17.30
2023-03-26T05:11:26.115Z,23.53
2023-03-26T05:13:29.098Z,21.53
2023-03-26T05:15:36.725Z,29.93
2023-03-26T05:17:49.554Z,24.60
2023-03-26T05:19:59.695Z,31.87
2023-03-26T05:22:03.216Z,17.77
2023-03-26T05:24:14.209Z,20.30
2023-03-26T05:26:17.484Z,27.63
2023-03-26T05:28:24.393Z,23.83
2023-03-26T05:30:44.603Z,31.87
2023-03-26T05:32:48.793Z,21.20
2023-03-26T05:34:54.067Z,31.83
2023-03-26T05:36:57.530Z,38.70
2023-03-26T05:39:31.044Z,25.77
2023-03-26T05:41:43.385Z,22.77
2023-03-26T05:43:47.769Z,22.53
2023-03-26T05:46:03.903Z,32.20
2023-03-26T05:48:08.506Z,22.40
2023-03-26T05:50:12.564Z,23.77
2023-03-26T05:52:19.220Z,17.20
2023-03-26T05:54:43.266Z,21.27
2023-03-26T05:57:09.277Z,20.53
2023-03-26T05:59:30.917Z,24.33
2023-03-26T06:02:03.330Z,30.67
2023-03-26T06:04:13.671Z,20.73
2023-03-26T06:06:24.172Z,20.50
2023-03-26T06:08:33.678Z,24.87
2023-03-26T06:10:42.319Z,19.43
2023-03-26T06:12:45.534Z,20.40
2023-03-26T06:14:50.243Z,26.73
2023-03-26T06:17:02.663Z,23.33
2023-03-26T06:19:12.115Z,21.80
2023-03-26T06:21:34.351Z,23.30
2023-03-26T06:23:51.864Z,28.80
2023-03-26T06:26:26.577Z,21.80
2023-03-26T06:28:56.195Z,24.47
2023-03-26T06:31:19.603Z,19.73
2023-03-26T06:33:36.158Z,15.70
2023-03-26T06:35:39.373Z,19.63
2023-03-26T06:37:42.553Z,19.33
2023-03-26T06:39:46.080Z,21.60
2023-03-26T06:41:54.113Z,23.77
2023-03-26T06:44:23.292Z,27.10
2023-03-26T06:46:45.542Z,22.60
2023-03-26T06:49:20.917Z,19.03
2023-03-26T06:51:43.587Z,16.60
2023-03-26T06:53:55.321Z,15.70
2023-03-26T06:56:16.976Z,21.60
2023-03-26T06:58:37.430Z,16.43
2023-03-26T07:00:59.140Z,20.13
2023-03-26T07:03:22.078Z,20.83
2023-03-26T07:05:44.000Z,20.60
2023-03-26T07:08:07.370Z,16.33
2023-03-26T07:10:42.117Z,15.07
2023-03-26T07:12:54.998Z,15.03
2023-03-26T07:15:25.496Z,20.23
2023-03-26T07:17:28.765Z,23.40
2023-03-26T07:19:39.368Z,13.83
2023-03-26T07:21:43.119Z,25.40
2023-03-26T07:24:12.523Z,16.63
2023-03-26T07:26:39.808Z,17.40
2023-03-26T07:29:04.455Z,17.53
2023-03-26T07:31:51.390Z,20.67
2023-03-26T07:34:28.013Z,19.77
2023-03-26T07:37:01.219Z,13.23
2023-03-26T07:39:40.601Z,14.43
2023-03-26T07:42:07.093Z,17.67
2023-03-26T07:44:45.157Z,27.60
2023-03-26T07:47:25.678Z,26.37
2023-03-26T07:49:49.271Z,25.97
2023-03-26T07:52:01.330Z,14.10
2023-03-26T07:54:28.225Z,18.90
2023-03-26T07:57:04.528Z,18.43
2023-03-26T07:59:20.729Z,20.90
2023-03-26T08:01:50.533Z,17.50
2023-03-26T08:04:24.185Z,14.67
2023-03-26T08:06:53.322Z,16.00
2023-03-26T08:09:28.794Z,17.83
2023-03-26T08:11:55.901Z,13.80
2023-03-26T08:14:06.556Z,14.53
2023-03-26T08:16:15.607Z,16.37
2023-03-26T08:18:29.387Z,27.57
2023-03-26T08:20:41.728Z,21.17
2023-03-26T08:22:50.804Z,16.70
2023-03-26T08:25:18.970Z,16.77
2023-03-26T08:27:25.481Z,13.73
2023-03-26T08:29:33.103Z,19.17
2023-03-26T08:31:39.329Z,10.27
2023-03-26T08:33:42.348Z,19.43
2023-03-26T08:35:47.121Z,14.63
2023-03-26T08:37:53.273Z,16.20
2023-03-26T08:39:56.277Z,25.57
2023-03-26T08:42:26.859Z,19.73
2023-03-26T08:45:16.804Z,19.80
2023-03-26T08:47:49.725Z,15.93
2023-03-26T08:50:27.815Z,21.10
2023-03-26T08:52:41.324Z,33.53
2023-03-26T08:54:49.662Z,25.37
2023-03-26T08:56:57.781Z,12.37
2023-03-26T08:59:28.645Z,22.47
2023-03-26T09:02:21.775Z,14.03
2023-03-26T09:04:50.973Z,21.13
2023-03-26T09:07:09.732Z,21.10
2023-03-26T09:09:45.069Z,14.23
2023-03-26T09:12:09.285Z,20.33
2023-03-26T09:14:52.429Z,20.17
2023-03-26T09:17:08.668Z,12.93
2023-03-26T09:20:01.973Z,15.00
2023-03-26T09:22:36.441Z,21.40
2023-03-26T09:25:16.696Z,28.17
2023-03-26T09:27:35.132Z,22.47
2023-03-26T09:30:22.573Z,13.33
2023-03-26T09:33:09.860Z,18.20
2023-03-26T09:35:30.062Z,25.10
2023-03-26T09:37:56.879Z,15.50
2023-03-26T09:40:15.634Z,18.07
2023-03-26T09:42:25.688Z,19.27
2023-03-26T09:44:59.129Z,18.77
2023-03-26T09:47:35.030Z,16.00
2023-03-26T09:49:47.104Z,20.47
2023-03-26T09:52:00.563Z,14.63
2023-03-26T09:54:14.696Z,17.37
2023-03-26T09:56:27.934Z,16.53
2023-03-26T09:59:00.081Z,16.90
2023-03-26T10:01:11.110Z,19.33
2023-03-26T10:03:27.129Z,27.80
2023-03-26T10:05:55.274Z,17.20
2023-03-26T10:08:07.871Z,17.00
2023-03-26T10:10:18.803Z,23.60
2023-03-26T10:12:31.926Z,18.83
2023-03-26T10:14:41.658Z,20.73
2023-03-26T10:16:55.686Z,22.30
2023-03-26T10:19:14.333Z,13.77
2023-03-26T10:21:25.632Z,19.90
2023-03-26T10:23:54.509Z,22.77
2023-03-26T10:26:11.070Z,19.00
2023-03-26T10:28:27.785Z,12.73
2023-03-26T10:30:54.818Z,19.40
2023-03-26T10:33:02.403Z,15.23
2023-03-26T10:35:20.245Z,17.23
2023-03-26T10:37:29.041Z,15.60
2023-03-26T10:40:01.159Z,8.63
2023-03-26T10:42:17.815Z,28.13
2023-03-26T10:44:37.930Z,20.07
2023-03-26T10:47:13.543Z,15.13
2023-03-26T10:49:41.021Z,14.33
2023-03-26T10:51:50.670Z,11.07
2023-03-26T10:53:57.915Z,9.23
2023-03-26T10:56:13.608Z,12.50
2023-03-26T10:58:20.062Z,14.27
2023-03-26T11:00:26.212Z,16.60
2023-03-26T11:02:41.137Z,13.97
2023-03-26T11:04:51.769Z,5.70
2023-03-26T11:07:04.866Z,15.90
2023-03-26T11:09:22.733Z,7.03
2023-03-26T11:11:30.612Z,11.60
2023-03-26T11:13:42.796Z,10.97
2023-03-26T11:15:50.228Z,9.93
2023-03-26T11:18:05.100Z,9.17
2023-03-26T11:20:12.337Z,10.40
2023-03-26T11:22:35.044Z,5.67
2023-03-26T11:24:59.263Z,10.63
2023-03-26T11:27:14.966Z,10.27
2023-03-26T11:29:34.419Z,8.83
2023-03-26T11:31:46.729Z,12.13
2023-03-26T11:33:54.821Z,7.20
2023-03-26T11:36:03.276Z,9.20
2023-03-26T11:38:08.049Z,9.40
2023-03-26T11:40:16.758Z,9.63
2023-03-26T11:42:23.861Z,8.00
2023-03-26T11:44:28.944Z,8.43
2023-03-26T11:46:33.883Z,6.20
2023-03-26T11:48:40.919Z,9.13
2023-03-26T11:50:48.120Z,6.13
2023-03-26T11:52:52.379Z,6.77
2023-03-26T11:55:00.527Z,3.43
2023-03-26T11:57:08.881Z,6.80
2023-03-26T11:59:14.793Z,7.93
2023-03-26T12:01:19.177Z,4.00
2023-03-26T12:03:22.192Z,3.70
2023-03-26T12:05:29.767Z,5.30
2023-03-26T12:07:35.784Z,4.77
2023-03-26T12:09:38.635Z,4.70
2023-03-26T12:11:41.516Z,3.10
2023-03-26T12:13:46.432Z,2.97
2023-03-26T12:15:52.423Z,1.73
2023-03-26T12:17:58.052Z,8.50
2023-03-26T12:20:02.402Z,4.30
2023-03-26T12:22:05.857Z,3.93
2023-03-26T12:24:26.298Z,2.47
2023-03-26T12:26:42.405Z,2.87
2023-03-26T12:28:47.282Z,1.57
2023-03-26T12:30:55.522Z,2.90
2023-03-26T12:33:03.765Z,2.23
2023-03-26T12:35:08.180Z,4.50
2023-03-26T12:37:35.225Z,1.10
2023-03-26T12:40:09.551Z,7.53
2023-03-26T12:44:46.649Z,0.90
2023-03-26T12:44:56.464Z,1.20
2023-03-26T12:48:00.298Z,1.50
2023-03-26T12:49:32.078Z,4.23
2023-03-26T12:51:41.822Z,1.20
2023-03-26T12:53:53.181Z,0.90
2023-03-26T12:56:01.843Z,0.80
2023-03-26T12:58:17.816Z,1.10
2023-03-26T13:00:29.112Z,1.17
2023-03-26T13:03:01.831Z,1.33
2023-03-26T13:05:19.675Z,2.97
2023-03-26T13:07:28.684Z,0.90
2023-03-26T13:09:55.262Z,1.00
2023-03-26T13:12:12.178Z,2.10
2023-03-26T13:14:25.996Z,1.00
2023-03-26T13:16:36.557Z,1.10
2023-03-26T13:18:46.377Z,0.80
2023-03-26T13:20:52.245Z,2.17
2023-03-26T13:23:02.152Z,2.70
2023-03-26T13:25:16.164Z,1.17
2023-03-26T13:27:34.364Z,1.47
2023-03-26T13:29:46.407Z,2.20
2023-03-26T13:31:56.429Z,2.87
2023-03-26T13:34:05.636Z,0.90
2023-03-26T13:36:23.046Z,0.60
2023-03-26T13:38:36.052Z,3.77
2023-03-26T13:40:46.365Z,1.23
2023-03-26T13:43:15.046Z,4.43
2023-03-26T13:45:30.212Z,1.13
2023-03-26T13:47:35.284Z,0.73
2023-03-26T13:49:42.030Z,1.93
2023-03-26T13:51:50.513Z,1.00
2023-03-26T13:53:57.078Z,1.33
2023-03-26T13:56:01.420Z,3.43
2023-03-26T13:58:11.981Z,2.07
2023-03-26T14:00:17.297Z,2.10
2023-03-26T14:02:27.532Z,8.53
2023-03-26T14:04:32.589Z,0.77
2023-03-26T14:06:43.509Z,1.97
2023-03-26T14:08:49.182Z,3.07
2023-03-26T14:10:54.939Z,0.87
2023-03-26T14:12:59.934Z,0.90
2023-03-26T14:15:08.461Z,2.30
2023-03-26T14:17:17.318Z,1.07
2023-03-26T14:19:37.399Z,1.63
2023-03-26T14:21:51.408Z,1.77
2023-03-26T14:24:21.346Z,3.57
2023-03-26T14:26:31.341Z,0.80
2023-03-26T14:29:09.196Z,2.07
2023-03-26T14:31:23.930Z,4.80
2023-03-26T14:33:46.030Z,3.50
2023-03-26T14:35:55.682Z,3.67
2023-03-26T14:38:19.422Z,1.80
2023-03-26T14:40:41.787Z,1.27
2023-03-26T14:42:56.690Z,1.27
2023-03-26T14:45:23.783Z,1.83
2023-03-26T14:47:34.319Z,1.47
2023-03-26T14:49:56.181Z,1.63
2023-03-26T14:52:24.079Z,2.70
2023-03-26T14:57:11.587Z,1.57
2023-03-26T14:59:59.326Z,1.23
2023-03-26T15:02:38.312Z,0.80
2023-03-26T15:05:26.071Z,1.53
2023-03-26T15:08:09.823Z,1.73
2023-03-26T15:10:50.618Z,1.77
2023-03-26T15:13:17.490Z,3.83
2023-03-26T15:15:36.678Z,3.90
2023-03-26T15:18:15.778Z,2.00
2023-03-26T15:20:54.013Z,4.30
2023-03-26T15:23:36.273Z,1.60
2023-03-26T15:26:17.041Z,2.40
2023-03-26T15:29:05.608Z,2.57
2023-03-26T15:31:32.764Z,1.27
2023-03-26T15:34:21.286Z,1.43
2023-03-26T15:37:03.580Z,1.97
2023-03-26T15:39:59.421Z,1.77
2023-03-26T15:42:09.749Z,8.37
2023-03-26T15:44:50.934Z,1.57
2023-03-26T15:47:38.163Z,1.73
2023-03-26T15:49:49.194Z,3.27
2023-03-26T15:51:56.857Z,1.60
2023-03-26T15:56:43.005Z,2.10
2023-03-26T15:59:00.155Z,3.80
2023-03-26T16:01:21.004Z,3.00
2023-03-26T16:03:34.323Z,3.87
2023-03-26T16:05:46.863Z,4.37
2023-03-26T16:07:59.158Z,4.03
2023-03-26T16:10:30.539Z,7.20
2023-03-26T16:12:51.139Z,6.17
2023-03-26T16:15:17.387Z,5.87
2023-03-26T16:17:25.328Z,4.00
2023-03-26T16:19:54.302Z,4.53
2023-03-26T16:22:01.693Z,4.50
2023-03-26T16:24:27.147Z,2.90
2023-03-26T16:26:39.056Z,4.63
2023-03-26T16:29:24.339Z,6.27
2023-03-26T16:31:39.285Z,6.23
2023-03-26T16:33:50.567Z,4.90
2023-03-26T16:36:34.846Z,5.43
2023-03-26T16:38:54.787Z,2.70
2023-03-26T16:41:10.386Z,4.40
2023-03-26T16:43:51.928Z,6.10
2023-03-26T16:46:12.079Z,7.83
2023-03-26T16:48:25.295Z,10.00
2023-03-26T16:50:41.880Z,10.27
2023-03-26T16:52:55.185Z,8.00
2023-03-26T16:55:08.533Z,14.23
2023-03-26T16:57:24.674Z,9.83
2023-03-26T17:00:06.435Z,15.90
2023-03-26T17:02:25.473Z,16.03
2023-03-26T17:04:33.731Z,21.80
2023-03-26T17:07:04.318Z,19.07
2023-03-26T17:09:19.818Z,23.17
2023-03-26T17:11:28.991Z,18.43
2023-03-26T17:13:42.435Z,20.77
2023-03-26T17:16:04.903Z,24.70
2023-03-26T17:18:36.958Z,19.40
2023-03-26T17:20:44.043Z,26.57
2023-03-26T17:22:49.197Z,28.43
2023-03-26T17:25:20.653Z,21.50
2023-03-26T17:27:37.548Z,27.97
2023-03-26T17:29:59.523Z,35.20
2023-03-26T17:32:08.687Z,22.73
2023-03-26T17:35:00.593Z,22.77
2023-03-26T17:37:09.438Z,15.87
2023-03-26T17:39:23.618Z,31.47
2023-03-26T17:41:57.427Z,17.70
2023-03-26T17:44:01.057Z,20.70
2023-03-26T17:46:06.327Z,23.10
2023-03-26T17:48:17.864Z,24.33
2023-03-26T17:50:23.006Z,20.53
2023-03-26T17:52:48.584Z,37.75
2023-03-26T17:54:52.977Z,27.47
2023-03-26T17:56:57.348Z,16.40
2023-03-26T17:59:11.584Z,16.93
2023-03-26T18:01:23.454Z,20.03
2023-03-26T18:03:31.133Z,19.33
2023-03-26T18:05:34.597Z,18.47
2023-03-26T18:07:58.729Z,15.80
2023-03-26T18:10:14.225Z,10.23
2023-03-26T18:12:35.524Z,19.73
2023-03-26T18:15:01.385Z,13.53
2023-03-26T18:17:04.823Z,13.40
2023-03-26T18:19:18.439Z,14.47
2023-03-26T18:21:25.729Z,17.00
2023-03-26T18:23:36.649Z,12.77
2023-03-26T18:25:41.014Z,15.80
2023-03-26T18:27:44.086Z,15.50
2023-03-26T18:29:48.337Z,24.40
2023-03-26T18:31:55.326Z,18.63
2023-03-26T18:34:06.777Z,22.07
2023-03-26T18:36:12.150Z,19.27
2023-03-26T18:38:18.754Z,18.53
2023-03-26T18:40:43.117Z,15.43
2023-03-26T18:42:48.044Z,11.60
2023-03-26T18:44:51.806Z,14.90
2023-03-26T18:46:56.300Z,17.37
2023-03-26T18:49:00.011Z,15.03
2023-03-26T18:51:05.949Z,15.80
2023-03-26T18:53:16.951Z,9.77
2023-03-26T18:55:20.052Z,13.97
2023-03-26T18:57:26.209Z,13.10
2023-03-26T18:59:32.196Z,16.07
2023-03-26T19:01:37.132Z,12.50
2023-03-26T19:03:43.668Z,27.90
2023-03-26T19:05:46.955Z,21.17
2023-03-26T19:07:52.355Z,15.40
2023-03-26T19:09:56.666Z,18.57
2023-03-26T19:12:06.621Z,21.97
2023-03-26T19:14:18.510Z,21.20
2023-03-26T19:16:23.692Z,14.03
2023-03-26T19:18:27.990Z,20.40
2023-03-26T19:20:35.868Z,20.90
2023-03-26T19:22:42.219Z,16.93
2023-03-26T19:24:45.359Z,12.23
2023-03-26T19:26:48.626Z,11.87
2023-03-26T19:28:53.704Z,20.33
2023-03-26T19:31:05.387Z,17.13
2023-03-26T19:33:14.900Z,17.67
2023-03-26T19:35:23.468Z,14.00
2023-03-26T19:37:29.836Z,17.40
2023-03-26T19:39:43.887Z,20.07
2023-03-26T19:41:51.990Z,15.70
2023-03-26T19:43:57.870Z,17.77
2023-03-26T19:46:02.366Z,28.20
2023-03-26T19:48:14.998Z,17.20
2023-03-26T19:50:26.734Z,15.33
2023-03-26T19:52:33.627Z,8.67
2023-03-26T19:55:00.073Z,14.30
2023-03-26T19:57:03.617Z,22.43
2023-03-26T19:59:06.703Z,11.83
2023-03-26T20:01:17.053Z,17.40
2023-03-26T20:03:27.394Z,21.27
2023-03-26T20:05:32.944Z,14.43
2023-03-26T20:07:39.269Z,18.57
2023-03-26T20:09:44.052Z,14.93
2023-03-26T20:11:47.458Z,18.23
2023-03-26T20:13:51.217Z,12.37
2023-03-26T20:16:05.662Z,18.23
2023-03-26T20:18:12.400Z,9.97
2023-03-26T20:20:17.446Z,11.43
2023-03-26T20:22:21.106Z,17.00
2023-03-26T20:24:24.786Z,14.47
2023-03-26T20:26:28.138Z,14.47
2023-03-26T20:28:38.674Z,10.63
2023-03-26T20:30:51.899Z,18.73
2023-03-26T20:33:12.919Z,11.60
2023-03-26T20:35:19.923Z,10.67
2023-03-26T20:37:39.208Z,13.63
2023-03-26T20:39:42.614Z,20.73
2023-03-26T20:41:47.621Z,21.83
2023-03-26T20:43:50.878Z,14.90
2023-03-26T20:45:53.982Z,21.97
2023-03-26T20:47:57.537Z,12.87
2023-03-26T20:50:01.930Z,11.67
2023-03-26T20:52:06.617Z,14.20
2023-03-26T20:54:20.176Z,9.90
2023-03-26T20:56:23.400Z,16.13
2023-03-26T20:58:31.789Z,12.97
2023-03-26T21:00:37.221Z,11.30
2023-03-26T21:02:41.944Z,15.00
2023-03-26T21:04:47.356Z,17.97
2023-03-26T21:06:50.864Z,20.13
2023-03-26T21:08:57.617Z,13.97
2023-03-26T21:11:02.075Z,13.37
2023-03-26T21:13:08.768Z,18.00
2023-03-26T21:15:22.403Z,29.00
2023-03-26T21:17:27.288Z,15.77
2023-03-26T21:19:30.788Z,12.30
2023-03-26T21:21:42.650Z,8.03
2023-03-26T21:23:49.632Z,11.93
2023-03-26T21:26:01.559Z,12.90
2023-03-26T21:28:16.277Z,18.20
2023-03-26T21:30:20.398Z,18.50
2023-03-26T21:32:24.389Z,15.67
2023-03-26T21:34:29.330Z,16.27
2023-03-26T21:36:33.494Z,12.50
2023-03-26T21:38:37.654Z,20.40
2023-03-26T21:40:46.978Z,11.37
2023-03-26T21:42:58.141Z,10.87
2023-03-26T21:45:01.549Z,15.43
2023-03-26T21:47:09.538Z,13.83
2023-03-26T21:49:14.944Z,8.20
2023-03-26T21:51:19.154Z,13.23
2023-03-26T21:53:24.110Z,8.80
2023-03-26T21:55:27.847Z,16.33
2023-03-26T21:57:40.547Z,12.70
2023-03-26T21:59:51.397Z,20.67
2023-03-26T22:01:59.101Z,15.00
2023-03-26T22:04:07.851Z,15.83
2023-03-26T22:06:14.552Z,14.90
2023-03-26T22:08:23.764Z,12.30
2023-03-26T22:10:27.044Z,10.57
2023-03-26T22:12:29.928Z,15.20
2023-03-26T22:14:33.663Z,11.70
2023-03-26T22:16:37.951Z,15.90
2023-03-26T22:18:43.698Z,16.53
2023-03-26T22:20:47.909Z,13.80
2023-03-26T22:22:55.323Z,10.77
2023-03-26T22:24:58.883Z,11.70
2023-03-26T22:27:01.991Z,13.73
2023-03-26T22:29:07.464Z,8.37
2023-03-26T22:31:10.869Z,8.70
2023-03-26T22:33:20.825Z,7.37
2023-03-26T22:35:23.863Z,10.07
2023-03-26T22:37:27.220Z,21.67
2023-03-26T22:39:30.218Z,17.90
2023-03-26T22:41:33.114Z,17.07
2023-03-26T22:43:35.968Z,11.63
2023-03-26T22:45:38.857Z,13.87
2023-03-26T22:47:42.364Z,16.40
2023-03-26T22:49:46.639Z,15.40
2023-03-26T22:51:50.190Z,18.53
2023-03-26T22:53:53.041Z,21.93
2023-03-26T22:55:58.910Z,15.03
2023-03-26T22:58:01.931Z,13.57
2023-03-26T23:00:16.479Z,25.07
2023-03-26T23:02:19.855Z,10.37
2023-03-26T23:04:31.533Z,23.80
2023-03-26T23:06:36.428Z,11.60
2023-03-26T23:08:39.878Z,15.93
2023-03-26T23:10:43.975Z,11.20
2023-03-26T23:12:46.988Z,15.57
2023-03-26T23:14:52.937Z,16.60
2023-03-26T23:16:56.069Z,17.90
2023-03-26T23:18:59.369Z,15.30
2023-03-26T23:21:02.249Z,15.70
2023-03-26T23:23:06.953Z,15.63
2023-03-26T23:25:10.966Z,18.80
2023-03-26T23:27:14.630Z,14.57
2023-03-26T23:29:18.332Z,11.47
2023-03-26T23:31:21.378Z,14.33
2023-03-26T23:33:26.389Z,9.97
2023-03-26T23:35:29.552Z,20.67
2023-03-26T23:37:35.019Z,11.00
2023-03-26T23:39:39.518Z,16.70
2023-03-26T23:41:42.749Z,11.53
2023-03-26T23:43:54.828Z,10.23
2023-03-26T23:45:59.472Z,15.70
2023-03-26T23:48:03.890Z,14.40
2023-03-26T23:50:08.347Z,9.60
2023-03-26T23:52:11.720Z,11.03
2023-03-26T23:54:15.279Z,13.77
2023-03-26T23:56:20.206Z,15.73
2023-03-26T23:58:24.616Z,15.13
